createdAt,value
2022-12-12T00:01:29.798Z,24.83
2022-12-12T00:03:58.533Z,27.20
2022-12-12T00:06:27.565Z,27.52
2022-12-12T00:08:56.483Z,24.35
2022-12-12T00:11:25.990Z,26.63
2022-12-12T00:13:54.617Z,24.33
2022-12-12T00:16:24.032Z,17.90
2022-12-12T00:18:52.675Z,25.13
2022-12-12T00:21:23.687Z,21.63
2022-12-12T00:23:52.930Z,21.10
2022-12-12T00:26:27.697Z,21.60
2022-12-12T00:28:57.608Z,15.40
2022-12-12T00:31:26.254Z,14.18
2022-12-12T00:33:55.377Z,12.50
2022-12-12T00:36:28.796Z,13.13
2022-12-12T00:38:58.164Z,15.07
2022-12-12T00:41:26.457Z,12.88
2022-12-12T00:43:54.698Z,11.60
2022-12-12T00:46:24.950Z,8.30
2022-12-12T00:48:58.514Z,8.32
2022-12-12T00:51:28.762Z,10.60
2022-12-12T00:53:58.003Z,7.97
2022-12-12T00:56:28.330Z,6.75
2022-12-12T00:58:56.645Z,6.55
2022-12-12T01:01:28.034Z,6.35
2022-12-12T01:03:58.065Z,6.00
2022-12-12T01:06:26.780Z,7.30
2022-12-12T01:08:55.326Z,7.05
2022-12-12T01:11:24.045Z,9.52
2022-12-12T01:13:53.967Z,4.40
2022-12-12T01:16:23.293Z,4.35
2022-12-12T01:18:51.803Z,5.22
2022-12-12T01:21:21.602Z,7.55
2022-12-12T01:23:49.972Z,5.03
2022-12-12T01:26:21.577Z,6.18
2022-12-12T01:28:50.601Z,4.55
2022-12-12T01:31:19.150Z,6.57
2022-12-12T01:33:47.616Z,5.43
2022-12-12T01:36:17.942Z,5.63
2022-12-12T01:38:47.998Z,4.00
2022-12-12T01:41:20.623Z,5.13
2022-12-12T01:43:49.177Z,7.05
2022-12-12T01:46:23.303Z,6.38
2022-12-12T01:48:58.904Z,5.35
2022-12-12T01:51:29.389Z,7.28
2022-12-12T01:54:06.560Z,4.88
2022-12-12T01:56:36.429Z,5.93
2022-12-12T01:59:07.529Z,6.07
2022-12-12T02:01:36.317Z,5.03
2022-12-12T02:04:05.865Z,6.50
2022-12-12T02:06:34.533Z,4.95
2022-12-12T02:09:07.994Z,4.80
2022-12-12T02:11:42.620Z,4.97
2022-12-12T02:14:11.542Z,4.25
2022-12-12T02:16:49.730Z,3.58
2022-12-12T02:19:39.663Z,4.05
2022-12-12T02:22:39.472Z,4.22
2022-12-12T02:25:26.884Z,4.53
2022-12-12T02:28:13.190Z,5.00
2022-12-12T02:31:20.137Z,3.33
2022-12-12T02:34:24.722Z,5.97
2022-12-12T02:37:17.454Z,4.93
2022-12-12T02:39:45.627Z,6.23
2022-12-12T02:42:55.379Z,4.13
2022-12-12T02:45:37.111Z,5.22
2022-12-12T02:48:19.582Z,4.63
2022-12-12T02:50:50.922Z,4.83
2022-12-12T02:53:23.584Z,6.28
2022-12-12T02:56:29.263Z,5.78
2022-12-12T02:58:58.376Z,5.20
2022-12-12T03:01:47.989Z,4.55
2022-12-12T03:04:52.312Z,4.80
2022-12-12T03:07:48.060Z,6.68
2022-12-12T03:10:29.659Z,5.80
2022-12-12T03:13:25.246Z,6.47
2022-12-12T03:16:06.721Z,5.57
2022-12-12T03:18:43.629Z,6.15
2022-12-12T03:21:27.361Z,4.78
2022-12-12T03:23:59.818Z,5.68
2022-12-12T03:26:33.205Z,7.72
2022-12-12T03:29:13.086Z,5.78
2022-12-12T03:31:45.277Z,4.10
2022-12-12T03:34:20.505Z,5.23
2022-12-12T03:37:03.115Z,4.35
2022-12-12T03:39:38.977Z,5.25
2022-12-12T03:42:43.350Z,4.03
2022-12-12T03:45:20.374Z,4.85
2022-12-12T03:48:05.825Z,4.72
2022-12-12T03:50:44.404Z,5.82
2022-12-12T03:53:23.094Z,6.25
2022-12-12T03:55:58.734Z,5.57
2022-12-12T03:58:45.784Z,5.65
2022-12-12T04:01:17.223Z,5.78
2022-12-12T04:04:03.190Z,4.40
2022-12-12T04:06:39.724Z,4.72
2022-12-12T04:09:34.009Z,4.20
2022-12-12T04:12:39.403Z,6.97
2022-12-12T04:15:20.319Z,4.93
2022-12-12T04:18:16.128Z,5.93
2022-12-12T04:21:08.675Z,6.53
2022-12-12T04:23:49.096Z,6.50
2022-12-12T04:26:39.742Z,8.75
2022-12-12T04:29:16.377Z,10.70
2022-12-12T04:32:07.842Z,10.98
2022-12-12T04:35:01.120Z,10.25
2022-12-12T04:37:57.841Z,11.98
2022-12-12T04:40:40.591Z,12.25
2022-12-12T04:43:15.094Z,12.90
2022-12-12T04:45:54.283Z,12.38
2022-12-12T04:48:38.399Z,11.73
2022-12-12T04:51:10.599Z,7.63
2022-12-12T04:53:46.359Z,8.38
2022-12-12T04:56:19.563Z,13.18
2022-12-12T04:58:47.809Z,12.73
2022-12-12T05:01:41.380Z,11.88
2022-12-12T05:06:53.610Z,13.80
2022-12-12T05:09:22.204Z,14.48
2022-12-12T05:11:50.473Z,13.75
2022-12-12T05:14:19.526Z,16.58
2022-12-12T05:16:59.155Z,17.58
2022-12-12T05:19:27.412Z,11.80
2022-12-12T05:21:55.580Z,13.60
2022-12-12T05:24:23.829Z,14.55
2022-12-12T05:26:52.062Z,16.85
2022-12-12T05:29:20.249Z,12.35
2022-12-12T05:31:48.457Z,15.38
2022-12-12T05:34:17.989Z,13.23
2022-12-12T05:36:46.186Z,12.85
2022-12-12T05:39:14.593Z,19.38
2022-12-12T05:41:42.708Z,14.73
2022-12-12T05:44:10.912Z,9.20
2022-12-12T05:46:39.155Z,8.25
2022-12-12T05:49:07.344Z,9.15
2022-12-12T05:51:35.589Z,8.35
2022-12-12T05:54:03.803Z,4.78
2022-12-12T05:56:32.004Z,5.13
2022-12-12T05:59:00.320Z,7.93
2022-12-12T06:01:28.568Z,13.23
2022-12-12T06:03:56.917Z,10.23
2022-12-12T06:06:25.255Z,10.18
2022-12-12T06:08:53.500Z,8.77
2022-12-12T06:11:21.756Z,8.50
2022-12-12T06:13:50.909Z,8.27
2022-12-12T06:16:20.161Z,10.68
2022-12-12T06:18:55.418Z,13.07
2022-12-12T06:21:24.159Z,17.45
2022-12-12T06:23:52.417Z,15.93
2022-12-12T06:26:21.516Z,14.57
2022-12-12T06:28:50.253Z,17.23
2022-12-12T06:31:18.993Z,13.98
2022-12-12T06:33:47.310Z,19.20
2022-12-12T06:36:23.924Z,16.67
2022-12-12T06:38:55.535Z,19.75
2022-12-12T06:41:25.644Z,18.35
2022-12-12T06:43:54.343Z,17.55
2022-12-12T06:46:26.597Z,17.05
2022-12-12T06:48:56.624Z,17.33
2022-12-12T06:51:27.652Z,17.27
2022-12-12T06:54:01.667Z,20.08
2022-12-12T06:56:29.820Z,18.45
2022-12-12T06:59:00.082Z,18.65
2022-12-12T07:01:28.477Z,21.45
2022-12-12T07:03:56.729Z,23.10
2022-12-12T07:06:25.324Z,21.02
2022-12-12T07:08:53.870Z,22.73
2022-12-12T07:11:24.809Z,20.98
2022-12-12T07:13:55.700Z,20.35
2022-12-12T07:16:24.236Z,22.45
2022-12-12T07:18:52.678Z,24.05
2022-12-12T07:21:21.423Z,27.48
2022-12-12T07:23:49.838Z,28.88
2022-12-12T07:26:21.170Z,26.75
2022-12-12T07:28:51.565Z,39.85
2022-12-12T07:31:22.437Z,37.30
2022-12-12T07:33:50.886Z,31.35
2022-12-12T07:36:19.089Z,28.58
2022-12-12T07:38:47.376Z,26.90
2022-12-12T07:41:20.383Z,26.48
2022-12-12T07:43:51.042Z,26.70
2022-12-12T07:46:23.643Z,23.40
2022-12-12T07:48:53.283Z,26.98
2022-12-12T07:51:22.219Z,30.40
2022-12-12T07:53:50.486Z,29.13
2022-12-12T07:56:19.988Z,29.88
2022-12-12T07:58:48.704Z,25.45
2022-12-12T08:01:20.523Z,29.08
2022-12-12T08:03:52.418Z,25.70
2022-12-12T08:06:22.350Z,25.85
2022-12-12T08:08:51.442Z,24.73
2022-12-12T08:11:24.783Z,24.27
2022-12-12T08:13:53.445Z,20.70
2022-12-12T08:16:27.848Z,21.35
2022-12-12T08:18:57.682Z,23.52
2022-12-12T08:21:27.178Z,30.17
2022-12-12T08:24:01.028Z,23.98
2022-12-12T08:26:30.552Z,27.38
2022-12-12T08:28:59.093Z,21.50
2022-12-12T08:31:28.303Z,22.73
2022-12-12T08:33:56.717Z,20.95
2022-12-12T08:36:30.167Z,20.40
2022-12-12T08:39:13.999Z,23.73
2022-12-12T08:41:43.858Z,25.20
2022-12-12T08:44:12.972Z,26.58
2022-12-12T08:46:41.652Z,20.83
2022-12-12T08:49:11.427Z,22.45
2022-12-12T08:51:40.863Z,23.70
2022-12-12T08:54:10.576Z,26.00
2022-12-12T08:56:39.050Z,21.80
2022-12-12T08:59:07.310Z,22.10
2022-12-12T09:01:35.607Z,27.00
2022-12-12T09:04:04.315Z,24.15
2022-12-12T09:06:32.540Z,23.10
2022-12-12T09:09:00.744Z,19.95
2022-12-12T09:11:28.983Z,20.70
2022-12-12T09:13:57.189Z,26.50
2022-12-12T09:16:27.611Z,30.15
2022-12-12T09:18:56.450Z,22.08
2022-12-12T09:21:24.657Z,25.23
2022-12-12T09:23:52.946Z,26.23
2022-12-12T09:26:21.167Z,23.13
2022-12-12T09:28:49.934Z,27.73
2022-12-12T09:31:19.377Z,30.92
2022-12-12T09:33:47.610Z,29.08
2022-12-12T09:36:16.079Z,29.35
2022-12-12T09:38:47.685Z,31.77
2022-12-12T09:41:27.342Z,29.38
2022-12-12T09:44:09.704Z,33.33
2022-12-12T09:47:02.074Z,28.95
2022-12-12T09:49:47.009Z,30.48
2022-12-12T09:52:31.499Z,28.80
2022-12-12T09:55:02.583Z,28.67
2022-12-12T09:57:44.377Z,28.83
2022-12-12T10:00:14.983Z,28.08
2022-12-12T10:03:23.413Z,26.65
2022-12-12T10:09:07.726Z,29.38
2022-12-12T10:11:55.685Z,26.30
2022-12-12T10:14:38.587Z,28.45
2022-12-12T10:17:20.438Z,28.90
2022-12-12T10:20:25.889Z,25.63
2022-12-12T10:23:12.607Z,25.10
2022-12-12T10:25:55.103Z,23.63
2022-12-12T10:28:27.149Z,25.20
2022-12-12T10:31:29.370Z,25.20
2022-12-12T10:33:57.639Z,27.08
2022-12-12T10:36:53.355Z,25.83
2022-12-12T10:39:42.821Z,30.25
2022-12-12T10:42:38.077Z,25.42
2022-12-12T10:45:17.922Z,28.08
2022-12-12T10:47:46.633Z,24.00
2022-12-12T10:50:25.499Z,25.30
2022-12-12T10:52:54.875Z,24.80
2022-12-12T10:55:36.361Z,22.58
2022-12-12T10:58:06.491Z,23.67
2022-12-12T11:00:44.118Z,24.27
2022-12-12T11:03:32.027Z,22.35
2022-12-12T11:06:06.299Z,20.75
2022-12-12T11:08:37.037Z,25.25
2022-12-12T11:11:13.953Z,22.13
2022-12-12T11:13:57.742Z,22.25
2022-12-12T11:16:27.644Z,28.00
2022-12-12T11:19:02.422Z,25.95
2022-12-12T11:21:34.496Z,25.13
2022-12-12T11:24:15.020Z,25.83
2022-12-12T11:26:56.174Z,28.65
2022-12-12T11:29:27.595Z,23.90
2022-12-12T11:31:57.088Z,30.05
2022-12-12T11:34:28.164Z,28.02
2022-12-12T11:36:58.937Z,30.33
2022-12-12T11:39:37.272Z,31.35
2022-12-12T11:42:06.882Z,28.17
2022-12-12T11:44:37.909Z,29.50
2022-12-12T11:47:29.344Z,29.83
2022-12-12T11:50:00.328Z,32.22
2022-12-12T11:52:33.940Z,32.45
2022-12-12T11:55:02.968Z,30.00
2022-12-12T11:58:10.831Z,29.45
2022-12-12T12:01:00.741Z,25.50
2022-12-12T12:04:11.322Z,24.25
2022-12-12T12:06:51.368Z,18.40
2022-12-12T12:09:28.574Z,27.38
2022-12-12T12:12:22.890Z,22.80
2022-12-12T12:15:15.452Z,23.73
2022-12-12T12:18:09.950Z,26.08
2022-12-12T12:20:53.073Z,26.88
2022-12-12T12:23:23.971Z,18.63
2022-12-12T12:26:11.244Z,19.23
2022-12-12T12:28:58.043Z,20.83
2022-12-12T12:31:48.718Z,20.85
2022-12-12T12:34:38.404Z,19.50
2022-12-12T12:37:30.831Z,32.85
2022-12-12T12:40:14.366Z,21.65
2022-12-12T12:45:57.691Z,13.00
2022-12-12T12:48:44.031Z,24.58
2022-12-12T12:51:37.200Z,23.10
2022-12-12T12:54:20.037Z,21.92
2022-12-12T12:57:13.949Z,19.77
2022-12-12T13:02:33.452Z,19.27
2022-12-12T13:05:19.470Z,19.88
2022-12-12T13:08:06.725Z,23.27
2022-12-12T13:10:42.277Z,22.13
2022-12-12T13:13:23.158Z,26.17
2022-12-12T13:15:56.810Z,24.92
2022-12-12T13:18:26.226Z,24.70
2022-12-12T13:21:08.961Z,33.42
2022-12-12T13:23:37.516Z,26.73
2022-12-12T13:26:41.491Z,31.33
2022-12-12T13:29:15.689Z,31.92
2022-12-12T13:32:15.877Z,34.30
2022-12-12T13:34:50.839Z,33.28
2022-12-12T13:37:22.397Z,31.00
2022-12-12T13:40:07.246Z,30.08
2022-12-12T13:42:54.363Z,37.60
2022-12-12T13:45:39.502Z,31.83
2022-12-12T13:48:35.487Z,32.30
2022-12-12T13:51:31.100Z,34.92
2022-12-12T13:54:45.383Z,35.83
2022-12-12T13:57:24.975Z,34.72
2022-12-12T13:59:57.402Z,32.83
2022-12-12T14:02:32.230Z,34.03
2022-12-12T14:05:26.849Z,38.28
2022-12-12T14:08:27.450Z,42.58
2022-12-12T14:11:03.577Z,36.95
2022-12-12T14:13:40.120Z,40.08
2022-12-12T14:16:18.152Z,39.67
2022-12-12T14:18:58.059Z,42.42
2022-12-12T14:21:47.687Z,38.35
2022-12-12T14:24:34.166Z,42.95
2022-12-12T14:27:07.015Z,37.70
2022-12-12T14:29:45.427Z,37.58
2022-12-12T14:32:16.467Z,39.60
2022-12-12T14:35:12.784Z,38.90
2022-12-12T14:38:02.656Z,43.00
2022-12-12T14:40:35.360Z,40.55
2022-12-12T14:43:26.309Z,44.90
2022-12-12T14:45:57.522Z,40.55
2022-12-12T14:48:33.516Z,44.42
2022-12-12T14:51:12.016Z,44.75
2022-12-12T14:53:46.948Z,43.47
2022-12-12T14:56:31.246Z,46.63
2022-12-12T14:59:05.801Z,44.78
2022-12-12T15:01:58.078Z,46.67
2022-12-12T15:04:38.647Z,43.05
2022-12-12T15:07:22.701Z,44.17
2022-12-12T15:09:51.098Z,47.10
2022-12-12T15:12:22.987Z,46.08
2022-12-12T15:14:52.901Z,46.85
2022-12-12T15:17:55.173Z,48.20
2022-12-12T15:20:26.532Z,49.20
2022-12-12T15:23:01.027Z,49.88
2022-12-12T15:25:40.976Z,49.60
2022-12-12T15:28:19.292Z,52.38
2022-12-12T15:30:52.428Z,46.20
2022-12-12T15:35:55.079Z,45.83
2022-12-12T15:38:26.270Z,47.80
2022-12-12T15:40:57.479Z,45.65
2022-12-12T15:43:28.489Z,51.15
2022-12-12T15:46:02.596Z,45.00
2022-12-12T15:48:31.417Z,55.30
2022-12-12T15:51:06.398Z,49.75
2022-12-12T15:53:37.727Z,52.97
2022-12-12T15:56:15.958Z,50.38
2022-12-12T15:58:53.427Z,50.83
2022-12-12T16:01:28.221Z,57.13
2022-12-12T16:04:22.057Z,62.30
2022-12-12T16:09:21.341Z,61.53
2022-12-12T16:11:54.245Z,56.20
2022-12-12T16:14:38.597Z,54.38
2022-12-12T16:17:25.410Z,53.55
2022-12-12T16:20:11.209Z,49.30
2022-12-12T16:22:42.660Z,55.42
2022-12-12T16:25:21.826Z,54.35
2022-12-12T16:27:58.879Z,51.63
2022-12-12T16:30:27.548Z,50.50
2022-12-12T16:32:55.811Z,53.53
2022-12-12T16:35:25.088Z,51.97
2022-12-12T16:37:53.618Z,50.70
2022-12-12T16:40:23.393Z,56.10
2022-12-12T16:43:07.732Z,51.53
2022-12-12T16:45:38.277Z,54.25
2022-12-12T16:48:34.037Z,53.17
2022-12-12T16:51:06.321Z,52.97
2022-12-12T16:53:36.211Z,62.90
2022-12-12T16:56:04.885Z,57.63
2022-12-12T16:58:34.021Z,55.22
2022-12-12T17:01:02.862Z,52.55
2022-12-12T17:03:32.872Z,56.03
2022-12-12T17:06:01.688Z,53.03
2022-12-12T17:08:33.004Z,56.97
2022-12-12T17:11:09.680Z,56.92
2022-12-12T17:13:48.105Z,57.17
2022-12-12T17:16:16.426Z,53.80
2022-12-12T17:18:45.048Z,57.35
2022-12-12T17:21:13.269Z,54.53
2022-12-12T17:23:41.520Z,61.65
2022-12-12T17:26:09.815Z,58.67
2022-12-12T17:28:38.098Z,60.17
2022-12-12T17:31:09.686Z,65.10
2022-12-12T17:33:49.625Z,58.08
2022-12-12T17:36:21.494Z,57.50
2022-12-12T17:38:49.901Z,64.78
2022-12-12T17:41:18.172Z,81.90
2022-12-12T17:43:50.609Z,73.93
2022-12-12T17:46:22.125Z,142.52
2022-12-12T17:48:50.561Z,129.45
2022-12-12T17:51:21.966Z,156.70
2022-12-12T17:53:52.631Z,100.82
2022-12-12T17:56:23.326Z,87.30
2022-12-12T17:58:54.359Z,120.90
2022-12-12T18:01:28.958Z,96.35
2022-12-12T18:03:58.138Z,101.65
2022-12-12T18:06:29.173Z,90.00
2022-12-12T18:08:58.274Z,93.82
2022-12-12T18:11:31.493Z,112.03
2022-12-12T18:14:02.995Z,136.60
2022-12-12T18:16:33.182Z,107.85
2022-12-12T18:19:01.944Z,85.45
2022-12-12T18:24:25.379Z,53.65
2022-12-12T18:26:55.442Z,61.15
2022-12-12T18:29:24.261Z,83.05
2022-12-12T18:31:52.633Z,65.55
2022-12-12T18:34:20.972Z,72.03
2022-12-12T18:36:49.900Z,66.45
2022-12-12T18:39:19.638Z,65.22
2022-12-12T18:41:51.510Z,56.40
2022-12-12T18:44:19.814Z,56.42
2022-12-12T18:46:50.067Z,59.10
2022-12-12T18:49:18.972Z,67.72
2022-12-12T18:51:47.629Z,125.45
2022-12-12T18:54:16.514Z,112.10
2022-12-12T18:56:47.092Z,79.30
2022-12-12T18:59:16.538Z,83.53
2022-12-12T19:01:45.550Z,95.75
2022-12-12T19:04:20.870Z,74.25
2022-12-12T19:06:52.974Z,139.82
2022-12-12T19:09:22.206Z,125.72
2022-12-12T19:11:50.673Z,98.47
2022-12-12T19:14:18.980Z,119.50
2022-12-12T19:16:48.234Z,106.28
2022-12-12T19:19:18.045Z,144.38
2022-12-12T19:21:49.537Z,150.43
2022-12-12T19:24:18.041Z,134.65
2022-12-12T19:26:46.348Z,119.22
2022-12-12T19:29:39.687Z,136.73
2022-12-12T19:32:08.120Z,137.82
2022-12-12T19:34:36.277Z,114.50
2022-12-12T19:37:05.027Z,98.55
2022-12-12T19:39:36.061Z,119.45
2022-12-12T19:42:04.370Z,135.00
2022-12-12T19:44:32.655Z,106.78
2022-12-12T19:47:00.879Z,108.65
2022-12-12T19:49:29.143Z,154.63
2022-12-12T19:51:57.375Z,90.82
2022-12-12T19:54:25.503Z,83.65
2022-12-12T19:56:56.261Z,115.63
2022-12-12T19:59:24.470Z,141.73
2022-12-12T20:01:54.593Z,158.20
2022-12-12T20:04:25.645Z,154.07
2022-12-12T20:06:53.871Z,141.77
2022-12-12T20:09:26.109Z,215.25
2022-12-12T20:11:56.301Z,107.78
2022-12-12T20:14:27.444Z,160.32
2022-12-12T20:16:56.813Z,127.43
2022-12-12T20:19:29.605Z,78.60
2022-12-12T20:22:00.804Z,104.07
2022-12-12T20:24:31.420Z,105.28
2022-12-12T20:27:00.284Z,77.40
2022-12-12T20:29:28.623Z,100.75
2022-12-12T20:31:59.667Z,89.03
2022-12-12T20:34:28.974Z,76.13
2022-12-12T20:36:59.667Z,64.35
2022-12-12T20:39:27.959Z,88.45
2022-12-12T20:41:57.563Z,99.70
2022-12-12T20:44:26.107Z,71.45
2022-12-12T20:46:54.556Z,86.63
2022-12-12T20:49:24.035Z,66.47
2022-12-12T20:51:55.898Z,74.30
2022-12-12T20:54:29.290Z,86.50
2022-12-12T20:56:58.757Z,98.72
2022-12-12T20:59:27.961Z,92.13
2022-12-12T21:01:56.488Z,111.65
2022-12-12T21:04:24.762Z,78.60
2022-12-12T21:06:53.003Z,87.82
2022-12-12T21:09:26.385Z,109.70
2022-12-12T21:11:57.961Z,115.70
2022-12-12T21:14:30.932Z,136.85
2022-12-12T21:16:59.907Z,79.65
2022-12-12T21:19:28.170Z,188.32
2022-12-12T21:21:56.492Z,91.05
2022-12-12T21:24:24.674Z,105.32
2022-12-12T21:26:52.995Z,149.23
2022-12-12T21:29:21.271Z,94.57
2022-12-12T21:31:52.102Z,75.38
2022-12-12T21:34:22.870Z,55.53
2022-12-12T21:36:53.245Z,93.90
2022-12-12T21:39:23.665Z,73.35
2022-12-12T21:41:52.050Z,138.98
2022-12-12T21:44:21.106Z,96.95
2022-12-12T21:46:49.406Z,118.95
2022-12-12T21:49:26.725Z,96.85
2022-12-12T21:52:15.059Z,147.68
2022-12-12T21:54:43.242Z,140.25
2022-12-12T21:57:12.064Z,116.47
2022-12-12T21:59:41.940Z,142.35
2022-12-12T22:02:13.973Z,93.20
2022-12-12T22:04:42.605Z,66.03
2022-12-12T22:07:12.239Z,70.53
2022-12-12T22:09:41.750Z,58.00
2022-12-12T22:12:09.978Z,50.08
2022-12-12T22:14:38.289Z,95.18
2022-12-12T22:17:06.560Z,61.08
2022-12-12T22:19:34.799Z,87.63
2022-12-12T22:22:02.893Z,66.05
2022-12-12T22:24:31.249Z,68.50
2022-12-12T22:26:59.460Z,54.78
2022-12-12T22:29:27.641Z,43.40
2022-12-12T22:31:55.879Z,46.63
2022-12-12T22:34:25.023Z,59.00
2022-12-12T22:36:53.973Z,48.42
2022-12-12T22:39:26.354Z,44.90
2022-12-12T22:41:56.478Z,34.88
2022-12-12T22:44:25.577Z,33.28
2022-12-12T22:46:55.074Z,39.67
2022-12-12T22:49:28.375Z,40.90
2022-12-12T22:51:57.928Z,39.53
2022-12-12T22:54:27.019Z,41.90
2022-12-12T22:56:55.627Z,52.55
2022-12-12T22:59:25.543Z,66.45
2022-12-12T23:01:53.764Z,73.15
2022-12-12T23:04:22.096Z,51.00
2022-12-12T23:06:50.317Z,49.38
2022-12-12T23:09:21.430Z,46.53
2022-12-12T23:11:50.766Z,46.50
2022-12-12T23:14:21.836Z,45.00
2022-12-12T23:16:50.922Z,46.85
2022-12-12T23:19:23.364Z,49.67
2022-12-12T23:21:51.891Z,49.55
2022-12-12T23:24:20.218Z,40.38
2022-12-12T23:26:51.178Z,44.22
2022-12-12T23:29:20.329Z,43.20
2022-12-12T23:31:49.820Z,45.90
2022-12-12T23:34:23.013Z,48.03
2022-12-12T23:36:53.980Z,44.42
2022-12-12T23:39:23.099Z,45.00
2022-12-12T23:41:51.838Z,43.03
2022-12-12T23:44:22.166Z,41.50
2022-12-12T23:46:51.286Z,42.53
2022-12-12T23:49:25.511Z,41.20
2022-12-12T23:51:56.183Z,41.03
2022-12-12T23:54:32.523Z,39.95
2022-12-12T23:57:01.616Z,40.85
2022-12-12T23:59:30.050Z,47.45
